sensor_id;sensor_type;location;lat;lon;timestamp;P1;durP1;ratioP1;P2;durP2;ratioP2
84264;SDS011;74412;45.626;5.108;2024-02-23T00:00:43;1.00;;;0.00;;
84264;SDS011;74412;45.626;5.108;2024-02-23T00:03:10;0.00;;;0.00;;
84264;SDS011;74412;45.626;5.108;2024-02-23T00:05:36;0.00;;;0.00;;
84264;SDS011;74412;45.626;5.108;2024-02-23T00:08:03;1.00;;;0.00;;
84264;SDS011;74412;45.626;5.108;2024-02-23T00:10:31;0.00;;;0.00;;
84264;SDS011;74412;45.626;5.108;2024-02-23T00:12:58;0.00;;;0.00;;
84264;SDS011;74412;45.626;5.108;2024-02-23T00:15:26;0.00;;;0.00;;
84264;SDS011;74412;45.626;5.108;2024-02-23T00:17:52;0.00;;;0.00;;
84264;SDS011;74412;45.626;5.108;2024-02-23T00:20:19;0.00;;;0.00;;
84264;SDS011;74412;45.626;5.108;2024-02-23T00:22:46;0.00;;;0.00;;
84264;SDS011;74412;45.626;5.108;2024-02-23T00:25:13;0.00;;;0.00;;
84264;SDS011;74412;45.626;5.108;2024-02-23T00:27:41;0.00;;;0.00;;
84264;SDS011;74412;45.626;5.108;2024-02-23T00:30:09;1.25;;;0.00;;
84264;SDS011;74412;45.626;5.108;2024-02-23T00:32:36;0.00;;;0.00;;
84264;SDS011;74412;45.626;5.108;2024-02-23T00:35:03;0.00;;;0.00;;
84264;SDS011;74412;45.626;5.108;2024-02-23T00:37:31;0.00;;;0.00;;
84264;SDS011;74412;45.626;5.108;2024-02-23T00:40:00;0.00;;;0.00;;
84264;SDS011;74412;45.626;5.108;2024-02-23T00:42:27;0.00;;;0.00;;
84264;SDS011;74412;45.626;5.108;2024-02-23T00:44:55;0.00;;;0.00;;
84264;SDS011;74412;45.626;5.108;2024-02-23T00:47:21;0.00;;;0.00;;
84264;SDS011;74412;45.626;5.108;2024-02-23T00:49:48;0.00;;;0.00;;
84264;SDS011;74412;45.626;5.108;2024-02-23T00:52:15;0.50;;;0.00;;
84264;SDS011;74412;45.626;5.108;2024-02-23T00:54:42;1.00;;;0.00;;
84264;SDS011;74412;45.626;5.108;2024-02-23T00:57:09;0.00;;;0.00;;
84264;SDS011;74412;45.626;5.108;2024-02-23T00:59:36;1.00;;;0.00;;
84264;SDS011;74412;45.626;5.108;2024-02-23T01:02:04;1.00;;;0.00;;
84264;SDS011;74412;45.626;5.108;2024-02-23T01:04:31;1.00;;;0.00;;
84264;SDS011;74412;45.626;5.108;2024-02-23T01:06:57;0.00;;;0.00;;
84264;SDS011;74412;45.626;5.108;2024-02-23T01:09:25;0.00;;;0.00;;
84264;SDS011;74412;45.626;5.108;2024-02-23T01:11:51;0.50;;;0.00;;
84264;SDS011;74412;45.626;5.108;2024-02-23T01:14:19;0.00;;;0.00;;
84264;SDS011;74412;45.626;5.108;2024-02-23T01:16:46;0.00;;;0.00;;
84264;SDS011;74412;45.626;5.108;2024-02-23T01:19:14;0.00;;;0.00;;
84264;SDS011;74412;45.626;5.108;2024-02-23T01:21:41;1.00;;;0.00;;
84264;SDS011;74412;45.626;5.108;2024-02-23T01:24:08;0.00;;;0.00;;
84264;SDS011;74412;45.626;5.108;2024-02-23T01:26:35;0.00;;;0.00;;
84264;SDS011;74412;45.626;5.108;2024-02-23T01:29:02;0.00;;;0.00;;
84264;SDS011;74412;45.626;5.108;2024-02-23T01:31:32;0.00;;;0.00;;
84264;SDS011;74412;45.626;5.108;2024-02-23T01:33:58;0.00;;;0.00;;
84264;SDS011;74412;45.626;5.108;2024-02-23T01:36:26;0.00;;;0.00;;
84264;SDS011;74412;45.626;5.108;2024-02-23T01:38:53;0.00;;;0.00;;
84264;SDS011;74412;45.626;5.108;2024-02-23T01:41:20;0.25;;;0.00;;
84264;SDS011;74412;45.626;5.108;2024-02-23T01:43:46;0.00;;;0.00;;
84264;SDS011;74412;45.626;5.108;2024-02-23T01:46:14;0.50;;;0.00;;
84264;SDS011;74412;45.626;5.108;2024-02-23T01:48:43;0.00;;;0.00;;
84264;SDS011;74412;45.626;5.108;2024-02-23T01:51:10;0.00;;;0.00;;
84264;SDS011;74412;45.626;5.108;2024-02-23T01:53:39;0.25;;;0.00;;
84264;SDS011;74412;45.626;5.108;2024-02-23T01:56:06;0.00;;;0.00;;
84264;SDS011;74412;45.626;5.108;2024-02-23T01:58:33;0.00;;;0.00;;
84264;SDS011;74412;45.626;5.108;2024-02-23T02:01:01;1.00;;;0.00;;
84264;SDS011;74412;45.626;5.108;2024-02-23T02:03:27;7.75;;;6.50;;
84264;SDS011;74412;45.626;5.108;2024-02-23T02:05:55;8.75;;;7.00;;
84264;SDS011;74412;45.626;5.108;2024-02-23T02:08:23;7.75;;;5.75;;
84264;SDS011;74412;45.626;5.108;2024-02-23T02:10:51;6.00;;;5.00;;
84264;SDS011;74412;45.626;5.108;2024-02-23T02:13:18;4.75;;;3.75;;
84264;SDS011;74412;45.626;5.108;2024-02-23T02:15:44;1.25;;;0.50;;
84264;SDS011;74412;45.626;5.108;2024-02-23T02:18:11;3.00;;;1.50;;
84264;SDS011;74412;45.626;5.108;2024-02-23T02:20:38;0.75;;;0.00;;
84264;SDS011;74412;45.626;5.108;2024-02-23T02:23:16;0.00;;;0.00;;
84264;SDS011;74412;45.626;5.108;2024-02-23T02:25:43;1.00;;;0.00;;
84264;SDS011;74412;45.626;5.108;2024-02-23T02:28:11;0.00;;;0.00;;
84264;SDS011;74412;45.626;5.108;2024-02-23T02:30:37;0.00;;;0.00;;
84264;SDS011;74412;45.626;5.108;2024-02-23T02:33:04;0.00;;;0.00;;
84264;SDS011;74412;45.626;5.108;2024-02-23T02:35:31;0.00;;;0.00;;
84264;SDS011;74412;45.626;5.108;2024-02-23T02:37:57;0.00;;;0.00;;
84264;SDS011;74412;45.626;5.108;2024-02-23T02:40:24;0.25;;;0.00;;
84264;SDS011;74412;45.626;5.108;2024-02-23T02:42:50;0.50;;;0.00;;
84264;SDS011;74412;45.626;5.108;2024-02-23T02:45:18;0.00;;;0.00;;
84264;SDS011;74412;45.626;5.108;2024-02-23T02:47:45;0.00;;;0.00;;
84264;SDS011;74412;45.626;5.108;2024-02-23T02:50:12;0.00;;;0.00;;
84264;SDS011;74412;45.626;5.108;2024-02-23T02:52:38;0.00;;;0.00;;
84264;SDS011;74412;45.626;5.108;2024-02-23T02:55:05;0.00;;;0.00;;
84264;SDS011;74412;45.626;5.108;2024-02-23T02:57:33;0.00;;;0.00;;
84264;SDS011;74412;45.626;5.108;2024-02-23T03:00:01;0.00;;;0.00;;
84264;SDS011;74412;45.626;5.108;2024-02-23T03:02:31;0.00;;;0.00;;
84264;SDS011;74412;45.626;5.108;2024-02-23T03:04:57;0.00;;;0.00;;
84264;SDS011;74412;45.626;5.108;2024-02-23T03:07:24;0.00;;;0.00;;
84264;SDS011;74412;45.626;5.108;2024-02-23T03:09:51;1.00;;;0.00;;
84264;SDS011;74412;45.626;5.108;2024-02-23T03:12:17;1.00;;;0.00;;
84264;SDS011;74412;45.626;5.108;2024-02-23T03:14:44;1.50;;;0.00;;
84264;SDS011;74412;45.626;5.108;2024-02-23T03:17:11;0.00;;;0.00;;
84264;SDS011;74412;45.626;5.108;2024-02-23T03:19:39;1.50;;;0.00;;
84264;SDS011;74412;45.626;5.108;2024-02-23T03:22:05;0.00;;;0.00;;
84264;SDS011;74412;45.626;5.108;2024-02-23T03:24:32;1.75;;;1.00;;
84264;SDS011;74412;45.626;5.108;2024-02-23T03:26:59;0.00;;;0.00;;
84264;SDS011;74412;45.626;5.108;2024-02-23T03:29:26;0.00;;;0.00;;
84264;SDS011;74412;45.626;5.108;2024-02-23T03:31:54;0.25;;;0.00;;
84264;SDS011;74412;45.626;5.108;2024-02-23T03:34:21;0.00;;;0.00;;
84264;SDS011;74412;45.626;5.108;2024-02-23T03:36:49;0.00;;;0.00;;
84264;SDS011;74412;45.626;5.108;2024-02-23T03:39:15;0.00;;;0.00;;
84264;SDS011;74412;45.626;5.108;2024-02-23T03:41:42;0.00;;;0.00;;
84264;SDS011;74412;45.626;5.108;2024-02-23T03:44:08;0.00;;;0.00;;
84264;SDS011;74412;45.626;5.108;2024-02-23T03:46:35;14.25;;;12.50;;
84264;SDS011;74412;45.626;5.108;2024-02-23T03:49:02;26.75;;;20.50;;
84264;SDS011;74412;45.626;5.108;2024-02-23T03:51:28;27.50;;;25.00;;
84264;SDS011;74412;45.626;5.108;2024-02-23T03:53:58;36.00;;;32.25;;
84264;SDS011;74412;45.626;5.108;2024-02-23T03:56:25;80.00;;;66.75;;
84264;SDS011;74412;45.626;5.108;2024-02-23T03:58:52;76.00;;;56.25;;
84264;SDS011;74412;45.626;5.108;2024-02-23T04:01:18;66.00;;;52.00;;
84264;SDS011;74412;45.626;5.108;2024-02-23T04:03:45;51.50;;;38.25;;
84264;SDS011;74412;45.626;5.108;2024-02-23T04:06:11;15.00;;;13.00;;
84264;SDS011;74412;45.626;5.108;2024-02-23T04:08:38;12.50;;;8.00;;
84264;SDS011;74412;45.626;5.108;2024-02-23T04:11:08;3.50;;;2.25;;
84264;SDS011;74412;45.626;5.108;2024-02-23T04:13:38;2.50;;;1.00;;
84264;SDS011;74412;45.626;5.108;2024-02-23T04:16:05;0.00;;;0.00;;
84264;SDS011;74412;45.626;5.108;2024-02-23T04:18:32;1.00;;;0.00;;
84264;SDS011;74412;45.626;5.108;2024-02-23T04:20:58;1.00;;;0.00;;
84264;SDS011;74412;45.626;5.108;2024-02-23T04:23:25;0.25;;;0.00;;
84264;SDS011;74412;45.626;5.108;2024-02-23T04:25:52;1.00;;;0.50;;
84264;SDS011;74412;45.626;5.108;2024-02-23T04:28:20;1.00;;;1.00;;
84264;SDS011;74412;45.626;5.108;2024-02-23T04:30:47;2.00;;;2.00;;
84264;SDS011;74412;45.626;5.108;2024-02-23T04:33:14;0.50;;;0.00;;
84264;SDS011;74412;45.626;5.108;2024-02-23T04:35:41;0.25;;;0.25;;
84264;SDS011;74412;45.626;5.108;2024-02-23T04:38:08;0.00;;;0.00;;
84264;SDS011;74412;45.626;5.108;2024-02-23T04:40:34;0.75;;;0.00;;
84264;SDS011;74412;45.626;5.108;2024-02-23T04:43:01;0.00;;;0.00;;
84264;SDS011;74412;45.626;5.108;2024-02-23T04:45:29;2.25;;;2.00;;
84264;SDS011;74412;45.626;5.108;2024-02-23T04:47:56;13.75;;;13.75;;
84264;SDS011;74412;45.626;5.108;2024-02-23T04:50:22;5.75;;;4.00;;
84264;SDS011;74412;45.626;5.108;2024-02-23T04:52:49;7.75;;;5.00;;
84264;SDS011;74412;45.626;5.108;2024-02-23T04:55:16;2.00;;;2.00;;
84264;SDS011;74412;45.626;5.108;2024-02-23T04:57:42;0.25;;;0.25;;
84264;SDS011;74412;45.626;5.108;2024-02-23T05:00:09;2.00;;;0.75;;
84264;SDS011;74412;45.626;5.108;2024-02-23T05:02:38;1.00;;;0.75;;
84264;SDS011;74412;45.626;5.108;2024-02-23T05:05:05;1.75;;;1.75;;
84264;SDS011;74412;45.626;5.108;2024-02-23T05:07:33;3.00;;;1.00;;
84264;SDS011;74412;45.626;5.108;2024-02-23T05:09:59;0.00;;;0.00;;
84264;SDS011;74412;45.626;5.108;2024-02-23T05:12:26;0.00;;;0.00;;
84264;SDS011;74412;45.626;5.108;2024-02-23T05:14:53;3.25;;;3.25;;
84264;SDS011;74412;45.626;5.108;2024-02-23T05:17:19;1.00;;;1.00;;
84264;SDS011;74412;45.626;5.108;2024-02-23T05:19:47;5.00;;;3.25;;
84264;SDS011;74412;45.626;5.108;2024-02-23T05:22:14;3.00;;;1.75;;
84264;SDS011;74412;45.626;5.108;2024-02-23T05:24:41;0.50;;;0.50;;
84264;SDS011;74412;45.626;5.108;2024-02-23T05:27:09;1.00;;;1.00;;
84264;SDS011;74412;45.626;5.108;2024-02-23T05:29:36;1.00;;;1.00;;
84264;SDS011;74412;45.626;5.108;2024-02-23T05:32:02;2.50;;;2.00;;
84264;SDS011;74412;45.626;5.108;2024-02-23T05:34:29;2.00;;;1.00;;
84264;SDS011;74412;45.626;5.108;2024-02-23T05:36:57;0.00;;;0.00;;
84264;SDS011;74412;45.626;5.108;2024-02-23T05:39:24;2.00;;;0.00;;
84264;SDS011;74412;45.626;5.108;2024-02-23T05:41:50;1.75;;;1.00;;
84264;SDS011;74412;45.626;5.108;2024-02-23T05:44:17;1.00;;;1.00;;
84264;SDS011;74412;45.626;5.108;2024-02-23T05:46:43;2.00;;;1.00;;
84264;SDS011;74412;45.626;5.108;2024-02-23T05:49:10;2.75;;;1.50;;
84264;SDS011;74412;45.626;5.108;2024-02-23T05:51:37;1.00;;;1.00;;
84264;SDS011;74412;45.626;5.108;2024-02-23T05:54:05;1.00;;;1.00;;
84264;SDS011;74412;45.626;5.108;2024-02-23T05:56:32;1.25;;;0.00;;
84264;SDS011;74412;45.626;5.108;2024-02-23T05:58:58;4.25;;;1.50;;
84264;SDS011;74412;45.626;5.108;2024-02-23T06:01:25;2.50;;;1.25;;
84264;SDS011;74412;45.626;5.108;2024-02-23T06:03:51;1.00;;;1.00;;
84264;SDS011;74412;45.626;5.108;2024-02-23T06:06:20;1.75;;;1.75;;
84264;SDS011;74412;45.626;5.108;2024-02-23T06:08:46;3.00;;;1.00;;
84264;SDS011;74412;45.626;5.108;2024-02-23T06:11:16;1.00;;;1.00;;
84264;SDS011;74412;45.626;5.108;2024-02-23T06:13:42;1.00;;;1.00;;
84264;SDS011;74412;45.626;5.108;2024-02-23T06:16:09;1.75;;;1.00;;
84264;SDS011;74412;45.626;5.108;2024-02-23T06:18:36;1.00;;;1.00;;
84264;SDS011;74412;45.626;5.108;2024-02-23T06:21:10;1.00;;;1.00;;
84264;SDS011;74412;45.626;5.108;2024-02-23T06:23:38;1.25;;;0.75;;
84264;SDS011;74412;45.626;5.108;2024-02-23T06:26:05;1.25;;;0.50;;
84264;SDS011;74412;45.626;5.108;2024-02-23T06:28:33;2.00;;;1.00;;
84264;SDS011;74412;45.626;5.108;2024-02-23T06:30:59;1.00;;;1.00;;
84264;SDS011;74412;45.626;5.108;2024-02-23T06:33:26;1.00;;;1.00;;
84264;SDS011;74412;45.626;5.108;2024-02-23T06:35:53;1.00;;;1.00;;
84264;SDS011;74412;45.626;5.108;2024-02-23T06:38:19;0.00;;;0.00;;
84264;SDS011;74412;45.626;5.108;2024-02-23T06:40:46;1.00;;;1.00;;
84264;SDS011;74412;45.626;5.108;2024-02-23T06:43:13;0.50;;;0.50;;
84264;SDS011;74412;45.626;5.108;2024-02-23T06:45:41;0.00;;;0.00;;
84264;SDS011;74412;45.626;5.108;2024-02-23T06:48:08;4.00;;;3.00;;
84264;SDS011;74412;45.626;5.108;2024-02-23T06:50:34;4.00;;;1.75;;
84264;SDS011;74412;45.626;5.108;2024-02-23T06:53:01;3.50;;;3.50;;
84264;SDS011;74412;45.626;5.108;2024-02-23T06:55:28;2.75;;;1.25;;
84264;SDS011;74412;45.626;5.108;2024-02-23T06:57:55;4.50;;;3.25;;
84264;SDS011;74412;45.626;5.108;2024-02-23T07:00:21;3.50;;;3.50;;
84264;SDS011;74412;45.626;5.108;2024-02-23T07:02:49;3.50;;;2.50;;
84264;SDS011;74412;45.626;5.108;2024-02-23T07:05:16;4.50;;;2.75;;
84264;SDS011;74412;45.626;5.108;2024-02-23T07:07:43;3.00;;;2.00;;
84264;SDS011;74412;45.626;5.108;2024-02-23T07:10:09;2.50;;;2.00;;
84264;SDS011;74412;45.626;5.108;2024-02-23T07:12:37;3.50;;;2.25;;
84264;SDS011;74412;45.626;5.108;2024-02-23T07:15:04;1.50;;;1.50;;
84264;SDS011;74412;45.626;5.108;2024-02-23T07:17:31;4.50;;;3.50;;
84264;SDS011;74412;45.626;5.108;2024-02-23T07:20:00;4.25;;;2.00;;
84264;SDS011;74412;45.626;5.108;2024-02-23T07:22:30;1.00;;;1.00;;
84264;SDS011;74412;45.626;5.108;2024-02-23T07:24:57;1.00;;;1.00;;
84264;SDS011;74412;45.626;5.108;2024-02-23T07:27:24;0.00;;;0.00;;
84264;SDS011;74412;45.626;5.108;2024-02-23T07:29:51;1.00;;;1.00;;
84264;SDS011;74412;45.626;5.108;2024-02-23T07:32:17;1.00;;;1.00;;
84264;SDS011;74412;45.626;5.108;2024-02-23T07:34:44;0.00;;;0.00;;
84264;SDS011;74412;45.626;5.108;2024-02-23T07:37:13;0.75;;;0.75;;
84264;SDS011;74412;45.626;5.108;2024-02-23T07:39:39;1.00;;;1.00;;
84264;SDS011;74412;45.626;5.108;2024-02-23T07:42:06;2.25;;;1.00;;
84264;SDS011;74412;45.626;5.108;2024-02-23T07:44:35;2.00;;;1.00;;
84264;SDS011;74412;45.626;5.108;2024-02-23T07:47:02;0.75;;;0.75;;
84264;SDS011;74412;45.626;5.108;2024-02-23T07:49:29;1.00;;;1.00;;
84264;SDS011;74412;45.626;5.108;2024-02-23T07:51:56;4.00;;;4.00;;
84264;SDS011;74412;45.626;5.108;2024-02-23T07:54:24;4.75;;;1.00;;
84264;SDS011;74412;45.626;5.108;2024-02-23T07:56:51;0.50;;;0.50;;
84264;SDS011;74412;45.626;5.108;2024-02-23T07:59:17;1.50;;;1.00;;
84264;SDS011;74412;45.626;5.108;2024-02-23T08:01:44;1.50;;;1.50;;
84264;SDS011;74412;45.626;5.108;2024-02-23T08:04:11;29.25;;;23.50;;
84264;SDS011;74412;45.626;5.108;2024-02-23T08:06:38;9.50;;;7.00;;
84264;SDS011;74412;45.626;5.108;2024-02-23T08:09:05;7.50;;;7.25;;
84264;SDS011;74412;45.626;5.108;2024-02-23T08:11:34;9.75;;;6.25;;
84264;SDS011;74412;45.626;5.108;2024-02-23T08:14:00;6.25;;;6.25;;
84264;SDS011;74412;45.626;5.108;2024-02-23T08:16:28;7.50;;;6.00;;
84264;SDS011;74412;45.626;5.108;2024-02-23T08:18:54;7.50;;;6.00;;
84264;SDS011;74412;45.626;5.108;2024-02-23T08:21:21;5.25;;;5.25;;
84264;SDS011;74412;45.626;5.108;2024-02-23T08:23:47;4.25;;;4.00;;
84264;SDS011;74412;45.626;5.108;2024-02-23T08:26:14;6.50;;;4.50;;
84264;SDS011;74412;45.626;5.108;2024-02-23T08:28:42;4.00;;;4.00;;
84264;SDS011;74412;45.626;5.108;2024-02-23T08:31:09;2.00;;;2.00;;
84264;SDS011;74412;45.626;5.108;2024-02-23T08:33:36;4.00;;;2.50;;
84264;SDS011;74412;45.626;5.108;2024-02-23T08:36:03;8.00;;;6.75;;
84264;SDS011;74412;45.626;5.108;2024-02-23T08:38:30;3.00;;;3.00;;
84264;SDS011;74412;45.626;5.108;2024-02-23T08:40:57;3.50;;;3.00;;
84264;SDS011;74412;45.626;5.108;2024-02-23T08:43:24;6.25;;;3.00;;
84264;SDS011;74412;45.626;5.108;2024-02-23T08:45:52;2.75;;;2.75;;
84264;SDS011;74412;45.626;5.108;2024-02-23T08:48:18;3.75;;;3.50;;
84264;SDS011;74412;45.626;5.108;2024-02-23T08:50:45;4.00;;;4.00;;
84264;SDS011;74412;45.626;5.108;2024-02-23T08:53:11;4.75;;;4.25;;
84264;SDS011;74412;45.626;5.108;2024-02-23T08:55:38;3.75;;;3.75;;
84264;SDS011;74412;45.626;5.108;2024-02-23T08:58:05;6.25;;;4.50;;
84264;SDS011;74412;45.626;5.108;2024-02-23T09:00:32;5.75;;;5.75;;
84264;SDS011;74412;45.626;5.108;2024-02-23T09:02:59;6.25;;;4.50;;
84264;SDS011;74412;45.626;5.108;2024-02-23T09:05:26;4.50;;;4.50;;
84264;SDS011;74412;45.626;5.108;2024-02-23T09:07:53;7.00;;;6.00;;
84264;SDS011;74412;45.626;5.108;2024-02-23T09:10:20;4.25;;;4.25;;
84264;SDS011;74412;45.626;5.108;2024-02-23T09:12:47;5.75;;;5.25;;
84264;SDS011;74412;45.626;5.108;2024-02-23T09:15:14;5.25;;;4.75;;
84264;SDS011;74412;45.626;5.108;2024-02-23T09:17:40;5.50;;;5.50;;
84264;SDS011;74412;45.626;5.108;2024-02-23T09:20:09;5.00;;;3.00;;
84264;SDS011;74412;45.626;5.108;2024-02-23T09:22:37;10.75;;;5.50;;
84264;SDS011;74412;45.626;5.108;2024-02-23T09:25:05;6.75;;;5.75;;
84264;SDS011;74412;45.626;5.108;2024-02-23T09:27:33;3.00;;;2.00;;
84264;SDS011;74412;45.626;5.108;2024-02-23T09:30:01;2.25;;;2.00;;
84264;SDS011;74412;45.626;5.108;2024-02-23T09:32:29;1.00;;;1.00;;
84264;SDS011;74412;45.626;5.108;2024-02-23T09:34:55;4.00;;;4.00;;
84264;SDS011;74412;45.626;5.108;2024-02-23T09:37:23;2.75;;;2.25;;
84264;SDS011;74412;45.626;5.108;2024-02-23T09:39:50;1.50;;;1.50;;
84264;SDS011;74412;45.626;5.108;2024-02-23T09:42:17;1.00;;;0.00;;
84264;SDS011;74412;45.626;5.108;2024-02-23T09:44:45;3.00;;;3.00;;
84264;SDS011;74412;45.626;5.108;2024-02-23T09:47:16;0.25;;;0.25;;
84264;SDS011;74412;45.626;5.108;2024-02-23T09:49:43;1.00;;;1.00;;
84264;SDS011;74412;45.626;5.108;2024-02-23T09:52:10;1.00;;;1.00;;
84264;SDS011;74412;45.626;5.108;2024-02-23T09:54:38;3.75;;;2.75;;
84264;SDS011;74412;45.626;5.108;2024-02-23T09:57:06;0.00;;;0.00;;
84264;SDS011;74412;45.626;5.108;2024-02-23T09:59:34;1.00;;;0.00;;
84264;SDS011;74412;45.626;5.108;2024-02-23T10:02:01;0.50;;;0.50;;
84264;SDS011;74412;45.626;5.108;2024-02-23T10:04:29;4.00;;;3.25;;
84264;SDS011;74412;45.626;5.108;2024-02-23T10:06:56;1.00;;;1.00;;
84264;SDS011;74412;45.626;5.108;2024-02-23T10:09:23;1.00;;;1.00;;
84264;SDS011;74412;45.626;5.108;2024-02-23T10:11:53;0.00;;;0.00;;
84264;SDS011;74412;45.626;5.108;2024-02-23T10:14:19;1.00;;;1.00;;
84264;SDS011;74412;45.626;5.108;2024-02-23T10:16:46;1.00;;;1.00;;
84264;SDS011;74412;45.626;5.108;2024-02-23T10:19:13;3.50;;;2.00;;
84264;SDS011;74412;45.626;5.108;2024-02-23T10:21:40;2.00;;;2.00;;
84264;SDS011;74412;45.626;5.108;2024-02-23T10:24:06;2.25;;;2.00;;
84264;SDS011;74412;45.626;5.108;2024-02-23T10:26:33;1.00;;;1.00;;
84264;SDS011;74412;45.626;5.108;2024-02-23T10:29:01;0.75;;;0.75;;
84264;SDS011;74412;45.626;5.108;2024-02-23T10:31:28;0.00;;;0.00;;
84264;SDS011;74412;45.626;5.108;2024-02-23T10:33:58;1.75;;;1.00;;
84264;SDS011;74412;45.626;5.108;2024-02-23T10:36:25;1.75;;;1.75;;
84264;SDS011;74412;45.626;5.108;2024-02-23T10:38:56;0.50;;;0.50;;
84264;SDS011;74412;45.626;5.108;2024-02-23T10:41:28;2.25;;;0.50;;
84264;SDS011;74412;45.626;5.108;2024-02-23T10:43:57;2.00;;;2.00;;
84264;SDS011;74412;45.626;5.108;2024-02-23T10:46:26;1.50;;;1.50;;
84264;SDS011;74412;45.626;5.108;2024-02-23T10:48:53;0.50;;;0.50;;
84264;SDS011;74412;45.626;5.108;2024-02-23T10:51:21;1.25;;;0.50;;
84264;SDS011;74412;45.626;5.108;2024-02-23T10:53:49;1.25;;;1.25;;
84264;SDS011;74412;45.626;5.108;2024-02-23T10:56:18;7.00;;;6.75;;
84264;SDS011;74412;45.626;5.108;2024-02-23T10:58:47;2.00;;;1.00;;
84264;SDS011;74412;45.626;5.108;2024-02-23T11:01:14;1.25;;;0.50;;
84264;SDS011;74412;45.626;5.108;2024-02-23T11:03:43;3.00;;;0.50;;
84264;SDS011;74412;45.626;5.108;2024-02-23T11:06:15;5.00;;;5.00;;
84264;SDS011;74412;45.626;5.108;2024-02-23T11:08:46;3.00;;;3.00;;
84264;SDS011;74412;45.626;5.108;2024-02-23T11:11:13;3.00;;;1.25;;
84264;SDS011;74412;45.626;5.108;2024-02-23T11:13:43;0.00;;;0.00;;
84264;SDS011;74412;45.626;5.108;2024-02-23T11:16:10;1.00;;;0.00;;
84264;SDS011;74412;45.626;5.108;2024-02-23T11:18:38;1.50;;;0.00;;
84264;SDS011;74412;45.626;5.108;2024-02-23T11:21:09;0.00;;;0.00;;
84264;SDS011;74412;45.626;5.108;2024-02-23T11:23:41;0.00;;;0.00;;
84264;SDS011;74412;45.626;5.108;2024-02-23T11:26:09;1.25;;;1.25;;
84264;SDS011;74412;45.626;5.108;2024-02-23T11:28:42;0.00;;;0.00;;
84264;SDS011;74412;45.626;5.108;2024-02-23T11:31:13;0.00;;;0.00;;
84264;SDS011;74412;45.626;5.108;2024-02-23T11:33:40;0.00;;;0.00;;
84264;SDS011;74412;45.626;5.108;2024-02-23T11:36:21;0.00;;;0.00;;
84264;SDS011;74412;45.626;5.108;2024-02-23T11:38:49;0.00;;;0.00;;
84264;SDS011;74412;45.626;5.108;2024-02-23T11:41:20;0.00;;;0.00;;
84264;SDS011;74412;45.626;5.108;2024-02-23T11:43:47;0.00;;;0.00;;
84264;SDS011;74412;45.626;5.108;2024-02-23T11:46:14;0.00;;;0.00;;
84264;SDS011;74412;45.626;5.108;2024-02-23T11:48:41;2.00;;;0.00;;
84264;SDS011;74412;45.626;5.108;2024-02-23T11:51:08;0.00;;;0.00;;
84264;SDS011;74412;45.626;5.108;2024-02-23T11:53:37;0.00;;;0.00;;
84264;SDS011;74412;45.626;5.108;2024-02-23T11:56:04;0.00;;;0.00;;
84264;SDS011;74412;45.626;5.108;2024-02-23T11:58:31;0.00;;;0.00;;
84264;SDS011;74412;45.626;5.108;2024-02-23T12:00:58;0.50;;;0.00;;
84264;SDS011;74412;45.626;5.108;2024-02-23T12:03:27;0.00;;;0.00;;
84264;SDS011;74412;45.626;5.108;2024-02-23T12:05:54;0.00;;;0.00;;
84264;SDS011;74412;45.626;5.108;2024-02-23T12:08:23;1.00;;;1.00;;
84264;SDS011;74412;45.626;5.108;2024-02-23T12:10:54;1.75;;;0.50;;
84264;SDS011;74412;45.626;5.108;2024-02-23T12:13:21;3.75;;;2.75;;
84264;SDS011;74412;45.626;5.108;2024-02-23T12:15:48;3.00;;;1.75;;
84264;SDS011;74412;45.626;5.108;2024-02-23T12:18:18;0.00;;;0.00;;
84264;SDS011;74412;45.626;5.108;2024-02-23T12:20:48;1.00;;;1.00;;
84264;SDS011;74412;45.626;5.108;2024-02-23T12:23:15;1.00;;;0.00;;
84264;SDS011;74412;45.626;5.108;2024-02-23T12:25:51;0.00;;;0.00;;
84264;SDS011;74412;45.626;5.108;2024-02-23T12:28:20;0.75;;;0.00;;
84264;SDS011;74412;45.626;5.108;2024-02-23T12:30:51;0.00;;;0.00;;
84264;SDS011;74412;45.626;5.108;2024-02-23T12:33:25;0.75;;;0.25;;
84264;SDS011;74412;45.626;5.108;2024-02-23T12:35:53;0.00;;;0.00;;
84264;SDS011;74412;45.626;5.108;2024-02-23T12:38:20;0.00;;;0.00;;
84264;SDS011;74412;45.626;5.108;2024-02-23T12:40:47;0.75;;;0.75;;
84264;SDS011;74412;45.626;5.108;2024-02-23T12:43:15;0.00;;;0.00;;
84264;SDS011;74412;45.626;5.108;2024-02-23T12:45:42;2.00;;;0.00;;
84264;SDS011;74412;45.626;5.108;2024-02-23T12:48:10;0.25;;;0.25;;
84264;SDS011;74412;45.626;5.108;2024-02-23T12:50:36;0.00;;;0.00;;
84264;SDS011;74412;45.626;5.108;2024-02-23T12:53:03;1.00;;;0.00;;
84264;SDS011;74412;45.626;5.108;2024-02-23T12:55:30;0.75;;;0.00;;
84264;SDS011;74412;45.626;5.108;2024-02-23T12:57:57;0.00;;;0.00;;
84264;SDS011;74412;45.626;5.108;2024-02-23T13:00:25;0.75;;;0.00;;
84264;SDS011;74412;45.626;5.108;2024-02-23T13:02:51;0.00;;;0.00;;
84264;SDS011;74412;45.626;5.108;2024-02-23T13:05:18;1.25;;;0.50;;
84264;SDS011;74412;45.626;5.108;2024-02-23T13:07:44;1.00;;;1.00;;
84264;SDS011;74412;45.626;5.108;2024-02-23T13:10:11;2.75;;;1.75;;
84264;SDS011;74412;45.626;5.108;2024-02-23T13:12:38;0.00;;;0.00;;
84264;SDS011;74412;45.626;5.108;2024-02-23T13:15:05;0.00;;;0.00;;
84264;SDS011;74412;45.626;5.108;2024-02-23T13:17:34;0.00;;;0.00;;
84264;SDS011;74412;45.626;5.108;2024-02-23T13:20:00;0.50;;;0.50;;
84264;SDS011;74412;45.626;5.108;2024-02-23T13:22:27;0.00;;;0.00;;
84264;SDS011;74412;45.626;5.108;2024-02-23T13:24:54;0.00;;;0.00;;
84264;SDS011;74412;45.626;5.108;2024-02-23T13:27:21;0.00;;;0.00;;
84264;SDS011;74412;45.626;5.108;2024-02-23T13:29:47;0.00;;;0.00;;
84264;SDS011;74412;45.626;5.108;2024-02-23T13:32:14;0.00;;;0.00;;
84264;SDS011;74412;45.626;5.108;2024-02-23T13:34:44;0.00;;;0.00;;
84264;SDS011;74412;45.626;5.108;2024-02-23T13:37:11;0.00;;;0.00;;
84264;SDS011;74412;45.626;5.108;2024-02-23T13:39:38;0.00;;;0.00;;
84264;SDS011;74412;45.626;5.108;2024-02-23T13:42:05;0.00;;;0.00;;
84264;SDS011;74412;45.626;5.108;2024-02-23T13:44:33;0.50;;;0.00;;
84264;SDS011;74412;45.626;5.108;2024-02-23T13:47:00;0.00;;;0.00;;
84264;SDS011;74412;45.626;5.108;2024-02-23T13:49:27;0.00;;;0.00;;
84264;SDS011;74412;45.626;5.108;2024-02-23T13:51:55;0.50;;;0.00;;
84264;SDS011;74412;45.626;5.108;2024-02-23T13:54:22;0.00;;;0.00;;
84264;SDS011;74412;45.626;5.108;2024-02-23T13:56:48;0.50;;;0.50;;
84264;SDS011;74412;45.626;5.108;2024-02-23T13:59:15;0.00;;;0.00;;
84264;SDS011;74412;45.626;5.108;2024-02-23T14:01:42;0.00;;;0.00;;
84264;SDS011;74412;45.626;5.108;2024-02-23T14:04:10;0.25;;;0.25;;
84264;SDS011;74412;45.626;5.108;2024-02-23T14:06:36;0.00;;;0.00;;
84264;SDS011;74412;45.626;5.108;2024-02-23T14:09:04;3.50;;;3.50;;
84264;SDS011;74412;45.626;5.108;2024-02-23T14:11:31;0.00;;;0.00;;
84264;SDS011;74412;45.626;5.108;2024-02-23T14:13:58;0.00;;;0.00;;
84264;SDS011;74412;45.626;5.108;2024-02-23T14:16:25;0.00;;;0.00;;
84264;SDS011;74412;45.626;5.108;2024-02-23T14:18:52;0.00;;;0.00;;
84264;SDS011;74412;45.626;5.108;2024-02-23T14:21:18;0.00;;;0.00;;
84264;SDS011;74412;45.626;5.108;2024-02-23T14:23:46;0.50;;;0.50;;
84264;SDS011;74412;45.626;5.108;2024-02-23T14:26:14;0.00;;;0.00;;
84264;SDS011;74412;45.626;5.108;2024-02-23T14:28:40;0.00;;;0.00;;
84264;SDS011;74412;45.626;5.108;2024-02-23T14:31:07;0.00;;;0.00;;
84264;SDS011;74412;45.626;5.108;2024-02-23T14:33:34;0.00;;;0.00;;
84264;SDS011;74412;45.626;5.108;2024-02-23T14:36:00;0.00;;;0.00;;
84264;SDS011;74412;45.626;5.108;2024-02-23T14:38:28;0.00;;;0.00;;
84264;SDS011;74412;45.626;5.108;2024-02-23T14:40:54;0.50;;;0.00;;
84264;SDS011;74412;45.626;5.108;2024-02-23T14:43:22;0.75;;;0.00;;
84264;SDS011;74412;45.626;5.108;2024-02-23T14:45:49;0.00;;;0.00;;
84264;SDS011;74412;45.626;5.108;2024-02-23T14:48:17;0.00;;;0.00;;